sensor_id;sensor_type;location;lat;lon;timestamp;pressure;altitude;pressure_sealevel;temperature;humidity
59608;BME280;45426;44.726;10.390;2023-02-04T00:00:19;100947.47;;;5.72;100.00
59608;BME280;45426;44.726;10.390;2023-02-04T00:02:45;100953.28;;;5.84;100.00
59608;BME280;45426;44.726;10.390;2023-02-04T00:05:11;100961.66;;;5.83;100.00
59608;BME280;45426;44.726;10.390;2023-02-04T00:07:37;100969.63;;;5.69;100.00
59608;BME280;45426;44.726;10.390;2023-02-04T00:10:04;100965.47;;;5.53;100.00
59608;BME280;45426;44.726;10.390;2023-02-04T00:12:29;100981.31;;;5.59;100.00
59608;BME280;45426;44.726;10.390;2023-02-04T00:14:55;100987.84;;;5.53;100.00
59608;BME280;45426;44.726;10.390;2023-02-04T00:17:20;100985.53;;;5.41;100.00
59608;BME280;45426;44.726;10.390;2023-02-04T00:19:46;100980.09;;;5.47;100.00
59608;BME280;45426;44.726;10.390;2023-02-04T00:22:11;100982.34;;;5.63;100.00
59608;BME280;45426;44.726;10.390;2023-02-04T00:24:37;100974.78;;;5.36;100.00
59608;BME280;45426;44.726;10.390;2023-02-04T00:27:04;100969.13;;;5.38;100.00
59608;BME280;45426;44.726;10.390;2023-02-04T00:29:29;100982.44;;;5.53;100.00
59608;BME280;45426;44.726;10.390;2023-02-04T00:31:55;100979.06;;;5.67;100.00
59608;BME280;45426;44.726;10.390;2023-02-04T00:34:21;100977.56;;;5.84;100.00
59608;BME280;45426;44.726;10.390;2023-02-04T00:36:47;100969.81;;;5.19;100.00
59608;BME280;45426;44.726;10.390;2023-02-04T00:39:13;100969.47;;;5.55;100.00
59608;BME280;45426;44.726;10.390;2023-02-04T00:41:38;100956.97;;;5.11;100.00
59608;BME280;45426;44.726;10.390;2023-02-04T00:44:04;100965.47;;;5.23;100.00
59608;BME280;45426;44.726;10.390;2023-02-04T00:46:29;100961.25;;;4.78;100.00
59608;BME280;45426;44.726;10.390;2023-02-04T00:48:54;100967.31;;;4.54;100.00
59608;BME280;45426;44.726;10.390;2023-02-04T00:51:20;100964.53;;;4.25;100.00
59608;BME280;45426;44.726;10.390;2023-02-04T00:53:45;100967.94;;;3.71;100.00
59608;BME280;45426;44.726;10.390;2023-02-04T00:56:11;100956.94;;;3.57;100.00
59608;BME280;45426;44.726;10.390;2023-02-04T00:58:36;100958.78;;;3.66;100.00
59608;BME280;45426;44.726;10.390;2023-02-04T01:01:02;100953.53;;;4.16;100.00
59608;BME280;45426;44.726;10.390;2023-02-04T01:03:27;100940.56;;;4.28;100.00
59608;BME280;45426;44.726;10.390;2023-02-04T01:05:53;100935.44;;;4.32;100.00
59608;BME280;45426;44.726;10.390;2023-02-04T01:08:18;100937.22;;;3.87;100.00
59608;BME280;45426;44.726;10.390;2023-02-04T01:10:44;100928.91;;;3.88;100.00
59608;BME280;45426;44.726;10.390;2023-02-04T01:13:09;100935.06;;;3.94;100.00
59608;BME280;45426;44.726;10.390;2023-02-04T01:15:35;100919.88;;;4.24;100.00
59608;BME280;45426;44.726;10.390;2023-02-04T01:18:00;100913.59;;;3.84;100.00
59608;BME280;45426;44.726;10.390;2023-02-04T01:20:26;100913.75;;;3.17;100.00
59608;BME280;45426;44.726;10.390;2023-02-04T01:22:51;100910.53;;;3.15;100.00
59608;BME280;45426;44.726;10.390;2023-02-04T01:25:17;100918.88;;;2.62;100.00
59608;BME280;45426;44.726;10.390;2023-02-04T01:27:43;100919.69;;;2.83;100.00
59608;BME280;45426;44.726;10.390;2023-02-04T01:30:10;100915.34;;;3.28;100.00
59608;BME280;45426;44.726;10.390;2023-02-04T01:32:35;100912.13;;;3.37;100.00
59608;BME280;45426;44.726;10.390;2023-02-04T01:35:01;100912.66;;;3.39;100.00
59608;BME280;45426;44.726;10.390;2023-02-04T01:37:27;100921.44;;;4.30;100.00
59608;BME280;45426;44.726;10.390;2023-02-04T01:39:52;100922.03;;;4.22;100.00
59608;BME280;45426;44.726;10.390;2023-02-04T01:42:18;100925.59;;;4.07;100.00
59608;BME280;45426;44.726;10.390;2023-02-04T01:44:43;100920.78;;;4.48;100.00
59608;BME280;45426;44.726;10.390;2023-02-04T01:47:12;100915.91;;;4.56;100.00
59608;BME280;45426;44.726;10.390;2023-02-04T01:49:37;100915.03;;;3.56;100.00
59608;BME280;45426;44.726;10.390;2023-02-04T01:52:03;100922.28;;;3.60;100.00
59608;BME280;45426;44.726;10.390;2023-02-04T01:54:29;100919.94;;;3.18;100.00
59608;BME280;45426;44.726;10.390;2023-02-04T01:56:55;100919.25;;;3.77;100.00
59608;BME280;45426;44.726;10.390;2023-02-04T01:59:21;100912.59;;;3.64;100.00
59608;BME280;45426;44.726;10.390;2023-02-04T02:01:49;100916.41;;;3.33;100.00
59608;BME280;45426;44.726;10.390;2023-02-04T02:04:23;100928.69;;;3.69;100.00
59608;BME280;45426;44.726;10.390;2023-02-04T02:06:54;100923.75;;;4.02;100.00
59608;BME280;45426;44.726;10.390;2023-02-04T02:09:22;100922.03;;;4.22;100.00
59608;BME280;45426;44.726;10.390;2023-02-04T02:11:48;100925.41;;;3.93;100.00
59608;BME280;45426;44.726;10.390;2023-02-04T02:14:14;100915.78;;;3.66;100.00
59608;BME280;45426;44.726;10.390;2023-02-04T02:16:39;100902.94;;;3.58;100.00
59608;BME280;45426;44.726;10.390;2023-02-04T02:19:06;100899.16;;;3.64;100.00
59608;BME280;45426;44.726;10.390;2023-02-04T02:21:46;100904.34;;;3.25;100.00
59608;BME280;45426;44.726;10.390;2023-02-04T02:24:27;100897.63;;;3.33;100.00
59608;BME280;45426;44.726;10.390;2023-02-04T02:26:54;100899.97;;;3.65;100.00
59608;BME280;45426;44.726;10.390;2023-02-04T02:29:21;100891.22;;;3.03;100.00
59608;BME280;45426;44.726;10.390;2023-02-04T02:31:47;100894.94;;;3.33;100.00
59608;BME280;45426;44.726;10.390;2023-02-04T02:34:12;100896.03;;;3.32;100.00
59608;BME280;45426;44.726;10.390;2023-02-04T02:36:38;100883.13;;;3.39;100.00
59608;BME280;45426;44.726;10.390;2023-02-04T02:39:04;100890.16;;;2.88;100.00
59608;BME280;45426;44.726;10.390;2023-02-04T02:41:29;100887.44;;;2.42;100.00
59608;BME280;45426;44.726;10.390;2023-02-04T02:43:55;100879.97;;;2.65;100.00
59608;BME280;45426;44.726;10.390;2023-02-04T02:46:21;100871.63;;;2.56;100.00
59608;BME280;45426;44.726;10.390;2023-02-04T02:48:46;100866.75;;;3.35;100.00
59608;BME280;45426;44.726;10.390;2023-02-04T02:51:12;100861.44;;;2.63;100.00
59608;BME280;45426;44.726;10.390;2023-02-04T02:53:37;100861.16;;;2.39;100.00
59608;BME280;45426;44.726;10.390;2023-02-04T02:56:03;100864.38;;;2.31;100.00
59608;BME280;45426;44.726;10.390;2023-02-04T02:58:32;100861.13;;;2.19;100.00
59608;BME280;45426;44.726;10.390;2023-02-04T03:00:59;100850.44;;;2.90;100.00
59608;BME280;45426;44.726;10.390;2023-02-04T03:03:31;100855.22;;;2.22;100.00
59608;BME280;45426;44.726;10.390;2023-02-04T03:06:02;100869.22;;;2.90;100.00
59608;BME280;45426;44.726;10.390;2023-02-04T03:08:29;100883.19;;;2.87;100.00
59608;BME280;45426;44.726;10.390;2023-02-04T03:10:54;100875.66;;;2.48;100.00
59608;BME280;45426;44.726;10.390;2023-02-04T03:13:20;100881.31;;;2.83;100.00
59608;BME280;45426;44.726;10.390;2023-02-04T03:15:46;100881.03;;;3.00;100.00
59608;BME280;45426;44.726;10.390;2023-02-04T03:18:15;100875.41;;;2.60;100.00
59608;BME280;45426;44.726;10.390;2023-02-04T03:20:44;100873.78;;;2.59;100.00
59608;BME280;45426;44.726;10.390;2023-02-04T03:23:10;100880.47;;;2.62;100.00
59608;BME280;45426;44.726;10.390;2023-02-04T03:25:37;100869.72;;;3.03;100.00
59608;BME280;45426;44.726;10.390;2023-02-04T03:28:03;100874.31;;;2.41;100.00
59608;BME280;45426;44.726;10.390;2023-02-04T03:30:32;100874.88;;;2.79;100.00
59608;BME280;45426;44.726;10.390;2023-02-04T03:32:57;100870.56;;;2.88;100.00
59608;BME280;45426;44.726;10.390;2023-02-04T03:35:23;100862.78;;;2.71;100.00
59608;BME280;45426;44.726;10.390;2023-02-04T03:37:48;100857.41;;;2.45;100.00
59608;BME280;45426;44.726;10.390;2023-02-04T03:40:14;100851.50;;;2.95;100.00
59608;BME280;45426;44.726;10.390;2023-02-04T03:42:40;100866.53;;;3.06;100.00
59608;BME280;45426;44.726;10.390;2023-02-04T03:45:05;100872.97;;;2.69;100.00
59608;BME280;45426;44.726;10.390;2023-02-04T03:47:31;100866.19;;;2.15;100.00
59608;BME280;45426;44.726;10.390;2023-02-04T03:49:57;100857.94;;;2.37;100.00
59608;BME280;45426;44.726;10.390;2023-02-04T03:52:22;100852.59;;;2.32;100.00
59608;BME280;45426;44.726;10.390;2023-02-04T03:54:47;100864.66;;;2.55;100.00
59608;BME280;45426;44.726;10.390;2023-02-04T03:57:13;100859.44;;;1.92;100.00
59608;BME280;45426;44.726;10.390;2023-02-04T03:59:40;100864.03;;;2.02;100.00
59608;BME280;45426;44.726;10.390;2023-02-04T04:02:06;100869.66;;;2.05;100.00
59608;BME280;45426;44.726;10.390;2023-02-04T04:04:31;100864.63;;;2.24;100.00
59608;BME280;45426;44.726;10.390;2023-02-04T04:06:56;100867.63;;;2.59;100.00
59608;BME280;45426;44.726;10.390;2023-02-04T04:09:22;100852.56;;;2.99;100.00
59608;BME280;45426;44.726;10.390;2023-02-04T04:11:47;100856.34;;;2.36;100.00
59608;BME280;45426;44.726;10.390;2023-02-04T04:14:13;100853.56;;;1.90;100.00
59608;BME280;45426;44.726;10.390;2023-02-04T04:16:38;100862.75;;;2.25;100.00
59608;BME280;45426;44.726;10.390;2023-02-04T04:19:04;100867.47;;;1.82;100.00
59608;BME280;45426;44.726;10.390;2023-02-04T04:21:29;100865.94;;;2.11;100.00
59608;BME280;45426;44.726;10.390;2023-02-04T04:23:55;100866.34;;;1.78;100.00
59608;BME280;45426;44.726;10.390;2023-02-04T04:26:20;100846.25;;;1.65;100.00
59608;BME280;45426;44.726;10.390;2023-02-04T04:28:45;100862.91;;;1.92;100.00
59608;BME280;45426;44.726;10.390;2023-02-04T04:31:11;100854.44;;;1.43;100.00
59608;BME280;45426;44.726;10.390;2023-02-04T04:33:36;100849.59;;;2.18;100.00
59608;BME280;45426;44.726;10.390;2023-02-04T04:36:03;100848.69;;;1.77;100.00
59608;BME280;45426;44.726;10.390;2023-02-04T04:38:29;100854.63;;;1.94;100.00
59608;BME280;45426;44.726;10.390;2023-02-04T04:40:54;100838.78;;;1.82;100.00
59608;BME280;45426;44.726;10.390;2023-02-04T04:43:20;100844.56;;;2.47;100.00
59608;BME280;45426;44.726;10.390;2023-02-04T04:45:45;100839.63;;;1.88;100.00
59608;BME280;45426;44.726;10.390;2023-02-04T04:48:10;100845.63;;;2.51;100.00
59608;BME280;45426;44.726;10.390;2023-02-04T04:50:36;100832.63;;;1.87;100.00
59608;BME280;45426;44.726;10.390;2023-02-04T04:53:01;100840.59;;;1.61;100.00
59608;BME280;45426;44.726;10.390;2023-02-04T04:55:27;100863.22;;;2.01;100.00
59608;BME280;45426;44.726;10.390;2023-02-04T04:57:52;100848.25;;;2.26;100.00
59608;BME280;45426;44.726;10.390;2023-02-04T05:00:19;100837.84;;;2.76;100.00
59608;BME280;45426;44.726;10.390;2023-02-04T05:02:45;100852.34;;;2.64;100.00
59608;BME280;45426;44.726;10.390;2023-02-04T05:05:11;100847.72;;;2.24;100.00
59608;BME280;45426;44.726;10.390;2023-02-04T05:07:36;100838.53;;;1.89;100.00
59608;BME280;45426;44.726;10.390;2023-02-04T05:10:02;100847.75;;;2.39;100.00
59608;BME280;45426;44.726;10.390;2023-02-04T05:12:28;100843.03;;;1.68;100.00
59608;BME280;45426;44.726;10.390;2023-02-04T05:14:53;100831.13;;;2.37;100.00
59608;BME280;45426;44.726;10.390;2023-02-04T05:17:19;100820.69;;;2.71;100.00
59608;BME280;45426;44.726;10.390;2023-02-04T05:19:44;100834.06;;;2.36;100.00
59608;BME280;45426;44.726;10.390;2023-02-04T05:22:10;100842.31;;;2.03;100.00
59608;BME280;45426;44.726;10.390;2023-02-04T05:24:35;100856.75;;;1.29;100.00
59608;BME280;45426;44.726;10.390;2023-02-04T05:27:01;100857.28;;;1.89;100.00
59608;BME280;45426;44.726;10.390;2023-02-04T05:29:26;100851.16;;;1.30;100.00
59608;BME280;45426;44.726;10.390;2023-02-04T05:31:51;100857.41;;;1.46;100.00
59608;BME280;45426;44.726;10.390;2023-02-04T05:34:17;100861.34;;;1.33;100.00
59608;BME280;45426;44.726;10.390;2023-02-04T05:36:42;100857.78;;;1.75;100.00
59608;BME280;45426;44.726;10.390;2023-02-04T05:39:08;100849.38;;;2.56;100.00
59608;BME280;45426;44.726;10.390;2023-02-04T05:41:33;100845.75;;;1.78;100.00
59608;BME280;45426;44.726;10.390;2023-02-04T05:43:58;100850.66;;;2.07;100.00
59608;BME280;45426;44.726;10.390;2023-02-04T05:46:24;100855.47;;;2.15;100.00
59608;BME280;45426;44.726;10.390;2023-02-04T05:48:49;100849.53;;;1.87;100.00
59608;BME280;45426;44.726;10.390;2023-02-04T05:51:15;100863.97;;;1.81;100.00
59608;BME280;45426;44.726;10.390;2023-02-04T05:53:40;100866.19;;;2.05;100.00
59608;BME280;45426;44.726;10.390;2023-02-04T05:56:06;100873.34;;;1.89;100.00
59608;BME280;45426;44.726;10.390;2023-02-04T05:58:31;100866.25;;;1.52;100.00
59608;BME280;45426;44.726;10.390;2023-02-04T06:01:00;100875.88;;;1.48;100.00
59608;BME280;45426;44.726;10.390;2023-02-04T06:03:26;100876.19;;;1.09;100.00
59608;BME280;45426;44.726;10.390;2023-02-04T06:05:51;100874.53;;;1.03;100.00
59608;BME280;45426;44.726;10.390;2023-02-04T06:08:17;100872.69;;;1.08;100.00
59608;BME280;45426;44.726;10.390;2023-02-04T06:10:42;100872.00;;;1.28;100.00
59608;BME280;45426;44.726;10.390;2023-02-04T06:13:08;100862.91;;;1.82;100.00
59608;BME280;45426;44.726;10.390;2023-02-04T06:15:34;100879.63;;;2.10;100.00
59608;BME280;45426;44.726;10.390;2023-02-04T06:17:59;100874.94;;;1.74;100.00
59608;BME280;45426;44.726;10.390;2023-02-04T06:20:24;100889.34;;;2.67;100.00
59608;BME280;45426;44.726;10.390;2023-02-04T06:22:50;100870.53;;;2.31;100.00
59608;BME280;45426;44.726;10.390;2023-02-04T06:25:16;100895.94;;;2.08;100.00
59608;BME280;45426;44.726;10.390;2023-02-04T06:27:42;100879.94;;;2.34;100.00
59608;BME280;45426;44.726;10.390;2023-02-04T06:30:09;100882.31;;;2.25;100.00
59608;BME280;45426;44.726;10.390;2023-02-04T06:32:35;100899.03;;;1.74;100.00
59608;BME280;45426;44.726;10.390;2023-02-04T06:35:00;100898.41;;;1.57;100.00
59608;BME280;45426;44.726;10.390;2023-02-04T06:37:25;100885.25;;;2.19;100.00
59608;BME280;45426;44.726;10.390;2023-02-04T06:39:51;100898.31;;;1.89;100.00
59608;BME280;45426;44.726;10.390;2023-02-04T06:42:19;100902.38;;;2.12;100.00
59608;BME280;45426;44.726;10.390;2023-02-04T06:44:44;100896.22;;;2.12;100.00
59608;BME280;45426;44.726;10.390;2023-02-04T06:47:10;100892.31;;;2.76;100.00
59608;BME280;45426;44.726;10.390;2023-02-04T06:49:35;100901.50;;;1.86;100.00
59608;BME280;45426;44.726;10.390;2023-02-04T06:52:00;100896.53;;;2.31;100.00
59608;BME280;45426;44.726;10.390;2023-02-04T06:54:26;100908.94;;;2.83;100.00
59608;BME280;45426;44.726;10.390;2023-02-04T06:56:51;100906.09;;;1.96;100.00
59608;BME280;45426;44.726;10.390;2023-02-04T06:59:17;100907.88;;;3.00;100.00
59608;BME280;45426;44.726;10.390;2023-02-04T07:01:42;100888.81;;;2.91;100.00
59608;BME280;45426;44.726;10.390;2023-02-04T07:04:07;100918.00;;;3.54;100.00
59608;BME280;45426;44.726;10.390;2023-02-04T07:06:33;100912.16;;;3.06;100.00
59608;BME280;45426;44.726;10.390;2023-02-04T07:08:58;100898.88;;;3.66;100.00
59608;BME280;45426;44.726;10.390;2023-02-04T07:11:24;100905.16;;;4.51;100.00
59608;BME280;45426;44.726;10.390;2023-02-04T07:13:49;100905.97;;;5.97;100.00
59608;BME280;45426;44.726;10.390;2023-02-04T07:16:14;100895.56;;;6.48;100.00
59608;BME280;45426;44.726;10.390;2023-02-04T07:18:40;100884.38;;;6.73;100.00
59608;BME280;45426;44.726;10.390;2023-02-04T07:21:05;100909.28;;;8.28;100.00
59608;BME280;45426;44.726;10.390;2023-02-04T07:23:31;100892.69;;;7.10;100.00
59608;BME280;45426;44.726;10.390;2023-02-04T07:25:56;100900.81;;;7.24;100.00
59608;BME280;45426;44.726;10.390;2023-02-04T07:28:23;100916.06;;;6.49;100.00
59608;BME280;45426;44.726;10.390;2023-02-04T07:30:49;100918.47;;;6.12;100.00
59608;BME280;45426;44.726;10.390;2023-02-04T07:33:15;100902.84;;;7.46;100.00
59608;BME280;45426;44.726;10.390;2023-02-04T07:35:40;100909.19;;;7.08;100.00
59608;BME280;45426;44.726;10.390;2023-02-04T07:38:05;100897.84;;;7.39;100.00
59608;BME280;45426;44.726;10.390;2023-02-04T07:40:31;100908.06;;;9.56;100.00
59608;BME280;45426;44.726;10.390;2023-02-04T07:42:56;100901.63;;;8.80;100.00
59608;BME280;45426;44.726;10.390;2023-02-04T07:45:23;100905.13;;;8.81;100.00
59608;BME280;45426;44.726;10.390;2023-02-04T07:47:48;100906.69;;;10.77;100.00
59608;BME280;45426;44.726;10.390;2023-02-04T07:50:14;100917.09;;;8.80;100.00
59608;BME280;45426;44.726;10.390;2023-02-04T07:52:40;100921.13;;;8.68;100.00
59608;BME280;45426;44.726;10.390;2023-02-04T07:55:07;100919.19;;;9.05;100.00
59608;BME280;45426;44.726;10.390;2023-02-04T07:57:32;100915.25;;;10.09;100.00
59608;BME280;45426;44.726;10.390;2023-02-04T07:59:58;100922.59;;;11.22;100.00
59608;BME280;45426;44.726;10.390;2023-02-04T08:02:23;100925.97;;;10.14;100.00
59608;BME280;45426;44.726;10.390;2023-02-04T08:04:49;100919.03;;;11.39;100.00
59608;BME280;45426;44.726;10.390;2023-02-04T08:07:15;100932.69;;;13.37;100.00
59608;BME280;45426;44.726;10.390;2023-02-04T08:09:40;100934.00;;;10.98;100.00
59608;BME280;45426;44.726;10.390;2023-02-04T08:12:06;100946.19;;;12.24;100.00
59608;BME280;45426;44.726;10.390;2023-02-04T08:14:31;100936.72;;;12.01;100.00
59608;BME280;45426;44.726;10.390;2023-02-04T08:16:57;100934.25;;;12.59;100.00
59608;BME280;45426;44.726;10.390;2023-02-04T08:19:22;100939.94;;;11.00;100.00
59608;BME280;45426;44.726;10.390;2023-02-04T08:21:48;100925.25;;;11.87;100.00
59608;BME280;45426;44.726;10.390;2023-02-04T08:24:14;100942.19;;;13.89;100.00
59608;BME280;45426;44.726;10.390;2023-02-04T08:26:41;100933.09;;;14.90;100.00
59608;BME280;45426;44.726;10.390;2023-02-04T08:29:07;100940.50;;;17.11;100.00
59608;BME280;45426;44.726;10.390;2023-02-04T08:31:33;100939.94;;;21.00;100.00
59608;BME280;45426;44.726;10.390;2023-02-04T08:33:59;100924.25;;;15.89;100.00
59608;BME280;45426;44.726;10.390;2023-02-04T08:36:25;100928.94;;;17.91;100.00
59608;BME280;45426;44.726;10.390;2023-02-04T08:38:50;100920.66;;;20.15;100.00
59608;BME280;45426;44.726;10.390;2023-02-04T08:41:15;100920.59;;;16.75;100.00
59608;BME280;45426;44.726;10.390;2023-02-04T08:43:41;100918.88;;;20.52;100.00
59608;BME280;45426;44.726;10.390;2023-02-04T08:46:06;100927.34;;;23.05;100.00
59608;BME280;45426;44.726;10.390;2023-02-04T08:48:32;100931.34;;;23.53;100.00
59608;BME280;45426;44.726;10.390;2023-02-04T08:50:57;100933.59;;;20.92;100.00
59608;BME280;45426;44.726;10.390;2023-02-04T08:53:23;100917.81;;;20.96;100.00
59608;BME280;45426;44.726;10.390;2023-02-04T08:55:48;100924.59;;;21.92;100.00
59608;BME280;45426;44.726;10.390;2023-02-04T08:58:14;100925.19;;;19.38;100.00
59608;BME280;45426;44.726;10.390;2023-02-04T09:00:39;100939.41;;;18.38;100.00
59608;BME280;45426;44.726;10.390;2023-02-04T09:03:04;100938.56;;;19.84;100.00
59608;BME280;45426;44.726;10.390;2023-02-04T09:05:30;100928.47;;;23.12;100.00
59608;BME280;45426;44.726;10.390;2023-02-04T09:07:55;100933.94;;;23.26;100.00
59608;BME280;45426;44.726;10.390;2023-02-04T09:10:21;100938.38;;;22.17;100.00
59608;BME280;45426;44.726;10.390;2023-02-04T09:12:46;100952.53;;;24.88;100.00
59608;BME280;45426;44.726;10.390;2023-02-04T09:15:12;100940.69;;;19.12;100.00
59608;BME280;45426;44.726;10.390;2023-02-04T09:17:37;100956.22;;;20.39;100.00
59608;BME280;45426;44.726;10.390;2023-02-04T09:20:03;100960.28;;;18.73;100.00
59608;BME280;45426;44.726;10.390;2023-02-04T09:22:30;100974.78;;;18.70;100.00
59608;BME280;45426;44.726;10.390;2023-02-04T09:24:57;100956.56;;;21.28;100.00
59608;BME280;45426;44.726;10.390;2023-02-04T09:27:22;100972.06;;;23.08;100.00
59608;BME280;45426;44.726;10.390;2023-02-04T09:29:47;100970.28;;;23.39;100.00
59608;BME280;45426;44.726;10.390;2023-02-04T09:32:13;100968.88;;;24.83;100.00
59608;BME280;45426;44.726;10.390;2023-02-04T09:34:38;100981.09;;;21.91;100.00
59608;BME280;45426;44.726;10.390;2023-02-04T09:37:04;100994.75;;;24.03;100.00
59608;BME280;45426;44.726;10.390;2023-02-04T09:39:29;100982.97;;;26.01;100.00
59608;BME280;45426;44.726;10.390;2023-02-04T09:41:55;100987.66;;;25.56;100.00
59608;BME280;45426;44.726;10.390;2023-02-04T09:44:24;100997.69;;;24.23;100.00
59608;BME280;45426;44.726;10.390;2023-02-04T09:46:55;100994.41;;;22.61;100.00
59608;BME280;45426;44.726;10.390;2023-02-04T09:49:21;100998.00;;;24.33;100.00
59608;BME280;45426;44.726;10.390;2023-02-04T09:51:47;100997.72;;;23.75;100.00
59608;BME280;45426;44.726;10.390;2023-02-04T09:54:16;100999.66;;;21.58;100.00
59608;BME280;45426;44.726;10.390;2023-02-04T09:56:42;101001.56;;;23.39;100.00
59608;BME280;45426;44.726;10.390;2023-02-04T09:59:12;101001.38;;;28.30;100.00
59608;BME280;45426;44.726;10.390;2023-02-04T10:01:38;101009.00;;;26.14;100.00
59608;BME280;45426;44.726;10.390;2023-02-04T10:04:04;101002.06;;;25.51;100.00
59608;BME280;45426;44.726;10.390;2023-02-04T10:06:30;101006.91;;;28.17;100.00
59608;BME280;45426;44.726;10.390;2023-02-04T10:08:56;100998.25;;;29.25;100.00
59608;BME280;45426;44.726;10.390;2023-02-04T10:11:23;100992.44;;;26.27;100.00
59608;BME280;45426;44.726;10.390;2023-02-04T10:13:52;101001.06;;;30.77;100.00
59608;BME280;45426;44.726;10.390;2023-02-04T10:16:21;100989.63;;;30.93;91.48
59608;BME280;45426;44.726;10.390;2023-02-04T10:18:48;100992.66;;;25.42;100.00
59608;BME280;45426;44.726;10.390;2023-02-04T10:21:19;100978.00;;;26.52;100.00
59608;BME280;45426;44.726;10.390;2023-02-04T10:23:47;101009.19;;;27.23;100.00
59608;BME280;45426;44.726;10.390;2023-02-04T10:26:15;100991.44;;;28.58;100.00
59608;BME280;45426;44.726;10.390;2023-02-04T10:28:41;100986.25;;;28.98;100.00
59608;BME280;45426;44.726;10.390;2023-02-04T10:31:35;100987.44;;;29.87;100.00
59608;BME280;45426;44.726;10.390;2023-02-04T10:34:03;100996.25;;;25.66;100.00
59608;BME280;45426;44.726;10.390;2023-02-04T10:36:29;100987.78;;;20.38;100.00
59608;BME280;45426;44.726;10.390;2023-02-04T10:38:59;101003.38;;;20.12;100.00
59608;BME280;45426;44.726;10.390;2023-02-04T10:41:25;101000.69;;;18.35;100.00
59608;BME280;45426;44.726;10.390;2023-02-04T10:44:02;100999.78;;;18.85;100.00
59608;BME280;45426;44.726;10.390;2023-02-04T10:46:29;100989.69;;;18.09;100.00
59608;BME280;45426;44.726;10.390;2023-02-04T10:48:55;100984.81;;;17.98;100.00
59608;BME280;45426;44.726;10.390;2023-02-04T10:51:20;100996.88;;;17.48;100.00
59608;BME280;45426;44.726;10.390;2023-02-04T10:53:46;100986.94;;;18.96;100.00
59608;BME280;45426;44.726;10.390;2023-02-04T10:56:30;100980.81;;;17.73;100.00
59608;BME280;45426;44.726;10.390;2023-02-04T10:58:55;100980.75;;;18.46;100.00
59608;BME280;45426;44.726;10.390;2023-02-04T11:01:21;100969.06;;;19.57;100.00
59608;BME280;45426;44.726;10.390;2023-02-04T11:03:46;100982.72;;;18.45;100.00
59608;BME280;45426;44.726;10.390;2023-02-04T11:06:16;100993.63;;;18.68;100.00
59608;BME280;45426;44.726;10.390;2023-02-04T11:08:44;100987.38;;;19.01;100.00
59608;BME280;45426;44.726;10.390;2023-02-04T11:11:16;100983.13;;;19.08;100.00
59608;BME280;45426;44.726;10.390;2023-02-04T11:16:23;100972.00;;;18.97;100.00
59608;BME280;45426;44.726;10.390;2023-02-04T11:19:10;100967.81;;;19.10;100.00
59608;BME280;45426;44.726;10.390;2023-02-04T11:26:36;100962.84;;;18.86;100.00
59608;BME280;45426;44.726;10.390;2023-02-04T11:39:35;100958.25;;;18.67;100.00
59608;BME280;45426;44.726;10.390;2023-02-04T11:42:02;100963.78;;;19.00;100.00
59608;BME280;45426;44.726;10.390;2023-02-04T11:44:28;100974.47;;;18.45;100.00
59608;BME280;45426;44.726;10.390;2023-02-04T11:46:55;100956.97;;;18.30;100.00
59608;BME280;45426;44.726;10.390;2023-02-04T11:49:22;100956.38;;;18.44;100.00
59608;BME280;45426;44.726;10.390;2023-02-04T11:51:48;100955.19;;;19.09;100.00
59608;BME280;45426;44.726;10.390;2023-02-04T11:54:15;100951.06;;;18.89;100.00
59608;BME280;45426;44.726;10.390;2023-02-04T11:56:44;100955.13;;;19.02;100.00
59608;BME280;45426;44.726;10.390;2023-02-04T11:59:10;100957.22;;;19.12;100.00
59608;BME280;45426;44.726;10.390;2023-02-04T12:01:36;100952.41;;;18.11;100.00
59608;BME280;45426;44.726;10.390;2023-02-04T12:04:05;100941.66;;;18.29;100.00
59608;BME280;45426;44.726;10.390;2023-02-04T12:06:35;100949.66;;;18.41;100.00
59608;BME280;45426;44.726;10.390;2023-02-04T12:09:30;100954.22;;;18.91;100.00
59608;BME280;45426;44.726;10.390;2023-02-04T12:12:00;100950.91;;;18.17;100.00
59608;BME280;45426;44.726;10.390;2023-02-04T12:14:36;100947.47;;;18.24;100.00
59608;BME280;45426;44.726;10.390;2023-02-04T12:17:16;100944.09;;;18.08;100.00
59608;BME280;45426;44.726;10.390;2023-02-04T12:19:41;100944.50;;;18.67;100.00
59608;BME280;45426;44.726;10.390;2023-02-04T12:22:07;100943.78;;;18.73;100.00
59608;BME280;45426;44.726;10.390;2023-02-04T12:24:33;100928.88;;;18.44;100.00
59608;BME280;45426;44.726;10.390;2023-02-04T12:26:59;100937.53;;;18.76;100.00
59608;BME280;45426;44.726;10.390;2023-02-04T12:29:24;100939.63;;;18.87;100.00
59608;BME280;45426;44.726;10.390;2023-02-04T12:31:50;100938.59;;;18.68;100.00
59608;BME280;45426;44.726;10.390;2023-02-04T12:34:15;100941.00;;;18.39;100.00
59608;BME280;45426;44.726;10.390;2023-02-04T12:36:41;100946.19;;;18.78;100.00
59608;BME280;45426;44.726;10.390;2023-02-04T12:39:07;100939.19;;;18.20;100.00
59608;BME280;45426;44.726;10.390;2023-02-04T12:41:32;100934.31;;;18.71;100.00
59608;BME280;45426;44.726;10.390;2023-02-04T12:43:58;100945.56;;;18.28;100.00
59608;BME280;45426;44.726;10.390;2023-02-04T12:46:25;100929.69;;;18.78;100.00
59608;BME280;45426;44.726;10.390;2023-02-04T12:48:51;100940.19;;;18.69;100.00